Saum, Minnesota
Current Conditions -  °F | °C
As of 11:54 PM on Tuesday 21 Oct 2014 (Local Time) from KVWU Reporting Station
Clear Clear  
Wind Chill: 39°   Ceiling: Unl
Heat Index: 46°   Visibility: 10mi
Dew Point: 37°   Wind: 17mph
Humidity: 71%   Direction: 140°SE
Pressure: 30.01"   Gusts: 24mph
Location:  47.9599°N, 94.5642°W
Report Text: KVWU 220454Z AUTO 14015G21KT 10SM CLR 08/03 A3001 RMK AO2
Loading
Personal Weather Stations






























Interactive Weather Map
Tropical Storm Tracking
New forecast layout! Learn more

10-Day Weather Forecast

Advertisements
Track Severe Weather on mobile